createdAt,value
2022-10-05T00:04:34.032Z,14.80
2022-10-05T00:09:34.868Z,14.70
2022-10-05T00:14:36.968Z,14.80
2022-10-05T00:19:37.698Z,14.70
2022-10-05T00:24:36.268Z,14.70
2022-10-05T00:29:35.904Z,14.60
2022-10-05T00:34:34.956Z,14.60
2022-10-05T00:39:34.235Z,14.60
2022-10-05T00:44:42.048Z,14.60
2022-10-05T00:49:59.957Z,14.60
2022-10-05T00:55:04.293Z,14.60
2022-10-05T01:00:08.731Z,14.60
2022-10-05T01:05:11.930Z,14.60
2022-10-05T01:10:19.659Z,14.50
2022-10-05T01:15:26.166Z,14.60
2022-10-05T01:20:35.572Z,14.60
2022-10-05T01:25:48.393Z,14.60
2022-10-05T01:30:55.863Z,14.60
2022-10-05T01:36:03.575Z,14.60
2022-10-05T01:41:13.656Z,14.50
2022-10-05T01:46:24.393Z,14.60
2022-10-05T01:51:31.831Z,14.60
2022-10-05T01:56:40.107Z,14.60
2022-10-05T02:01:47.024Z,14.60
2022-10-05T02:06:49.048Z,14.50
2022-10-05T02:11:53.381Z,14.60
2022-10-05T02:16:56.865Z,14.50
2022-10-05T02:22:00.369Z,14.50
2022-10-05T02:27:00.150Z,14.50
2022-10-05T02:32:04.939Z,14.50
2022-10-05T02:37:26.027Z,14.50
2022-10-05T02:42:33.014Z,14.50
2022-10-05T02:47:41.580Z,14.50
2022-10-05T02:52:54.499Z,14.60
2022-10-05T02:57:59.476Z,14.60
2022-10-05T03:03:07.017Z,14.50
2022-10-05T03:08:13.160Z,14.50
2022-10-05T03:13:20.541Z,14.50
2022-10-05T03:18:31.724Z,14.50
2022-10-05T03:23:42.104Z,14.60
2022-10-05T03:28:51.486Z,14.60
2022-10-05T03:33:57.187Z,14.60
2022-10-05T03:39:04.172Z,14.60
2022-10-05T03:44:21.624Z,14.60
2022-10-05T03:49:28.696Z,14.60
2022-10-05T03:54:33.910Z,14.60
2022-10-05T03:59:39.056Z,14.60
2022-10-05T04:04:49.869Z,14.50
2022-10-05T04:09:50.922Z,14.50
2022-10-05T04:14:54.690Z,14.60
2022-10-05T04:19:58.845Z,14.60
2022-10-05T04:25:04.453Z,14.60
2022-10-05T04:30:08.662Z,14.60
2022-10-05T04:35:42.985Z,14.60
2022-10-05T04:40:57.721Z,14.60
2022-10-05T04:46:12.841Z,14.60
2022-10-05T04:51:25.523Z,14.60
2022-10-05T04:56:35.618Z,14.60
2022-10-05T05:01:49.077Z,14.60
2022-10-05T05:06:57.864Z,14.70
2022-10-05T05:12:09.532Z,14.70
2022-10-05T05:17:24.483Z,14.60
2022-10-05T05:22:32.764Z,14.70
2022-10-05T05:27:43.136Z,14.70
2022-10-05T05:32:54.765Z,14.70
2022-10-05T05:38:01.991Z,14.70
2022-10-05T05:43:07.767Z,14.80
2022-10-05T05:48:16.448Z,14.80
2022-10-05T05:53:19.953Z,14.80
2022-10-05T05:58:24.664Z,14.80
2022-10-05T06:03:28.766Z,14.80
2022-10-05T06:08:34.591Z,14.90
2022-10-05T06:13:43.116Z,14.90
2022-10-05T06:18:47.693Z,14.90
2022-10-05T06:23:49.755Z,14.90
2022-10-05T06:28:56.733Z,15.00
2022-10-05T06:34:00.224Z,15.00
2022-10-05T06:39:24.268Z,15.10
2022-10-05T06:44:27.651Z,15.10
2022-10-05T06:49:53.412Z,15.10
2022-10-05T06:55:19.142Z,15.10
2022-10-05T07:00:21.480Z,15.20
2022-10-05T07:05:44.821Z,15.20
2022-10-05T07:10:53.480Z,15.20
2022-10-05T07:16:01.083Z,15.30
2022-10-05T07:21:06.929Z,15.30
2022-10-05T07:26:10.813Z,15.40
2022-10-05T07:31:17.484Z,15.40
2022-10-05T07:36:41.382Z,15.50
2022-10-05T07:41:46.039Z,15.60
2022-10-05T07:46:52.862Z,15.70
2022-10-05T07:51:55.462Z,15.70
2022-10-05T07:57:01.066Z,15.80
2022-10-05T08:02:11.026Z,15.90
2022-10-05T08:07:16.450Z,15.90
2022-10-05T08:12:24.175Z,16.00
2022-10-05T08:17:32.135Z,16.10
2022-10-05T08:22:40.372Z,16.20
2022-10-05T08:27:48.574Z,16.30
2022-10-05T08:32:55.227Z,16.30
2022-10-05T08:37:54.588Z,16.40
2022-10-05T08:43:03.007Z,16.40
2022-10-05T08:48:29.490Z,16.40
2022-10-05T08:53:43.922Z,16.50
2022-10-05T08:59:11.606Z,16.50
2022-10-05T09:04:31.004Z,16.60
2022-10-05T09:10:00.806Z,16.70
2022-10-05T09:15:25.253Z,16.80
2022-10-05T09:20:32.194Z,17.00
2022-10-05T09:25:43.400Z,17.10
2022-10-05T09:30:52.981Z,17.30
2022-10-05T09:36:39.061Z,17.40
2022-10-05T09:42:03.458Z,17.60
2022-10-05T09:47:45.126Z,17.70
2022-10-05T09:53:22.398Z,17.80
2022-10-05T09:59:09.283Z,18.00
2022-10-05T10:04:41.713Z,18.10
2022-10-05T10:09:52.585Z,18.20
2022-10-05T10:15:29.967Z,18.30
2022-10-05T10:20:49.943Z,18.40
2022-10-05T10:26:16.185Z,18.50
2022-10-05T10:31:50.670Z,18.50
2022-10-05T10:37:23.006Z,18.60
2022-10-05T10:42:37.979Z,18.60
2022-10-05T10:47:43.887Z,18.60
2022-10-05T10:52:55.144Z,18.60
2022-10-05T10:58:19.069Z,18.70
2022-10-05T11:04:02.243Z,18.70
2022-10-05T11:09:28.757Z,18.80
2022-10-05T11:14:57.045Z,18.80
2022-10-05T11:20:09.269Z,18.90
2022-10-05T11:25:52.443Z,18.90
2022-10-05T11:31:16.031Z,19.00
2022-10-05T11:36:50.322Z,19.00
2022-10-05T11:42:24.528Z,19.00
2022-10-05T11:47:27.366Z,19.00
2022-10-05T11:52:33.139Z,19.10
2022-10-05T11:57:37.680Z,19.20
2022-10-05T12:03:15.044Z,19.20
2022-10-05T12:08:31.988Z,19.30
2022-10-05T12:13:41.156Z,19.40
2022-10-05T12:18:49.812Z,19.50
2022-10-05T12:23:53.369Z,19.60
2022-10-05T12:28:54.970Z,19.70
2022-10-05T12:34:01.715Z,19.80
2022-10-05T12:39:05.205Z,19.90
2022-10-05T12:44:15.480Z,20.00
2022-10-05T12:49:36.092Z,20.10
2022-10-05T12:54:47.868Z,20.20
2022-10-05T12:59:51.709Z,20.30
2022-10-05T13:04:57.491Z,20.30
2022-10-05T13:10:03.818Z,20.40
2022-10-05T13:15:11.688Z,20.40
2022-10-05T13:20:22.198Z,20.40
2022-10-05T13:25:28.529Z,20.50
2022-10-05T13:30:27.077Z,20.60
2022-10-05T13:35:43.189Z,20.60
2022-10-05T13:40:47.615Z,20.60
2022-10-05T13:45:55.679Z,20.60
2022-10-05T13:51:05.939Z,20.70
2022-10-05T13:56:13.695Z,20.70
2022-10-05T14:01:18.188Z,20.70
2022-10-05T14:06:30.266Z,20.70
2022-10-05T14:11:32.521Z,20.80
2022-10-05T14:16:33.275Z,20.80
2022-10-05T14:21:43.946Z,20.80
2022-10-05T14:26:42.081Z,20.80
2022-10-05T14:31:50.965Z,20.90
2022-10-05T14:36:57.625Z,20.90
2022-10-05T14:41:56.049Z,20.90
2022-10-05T14:46:56.623Z,20.90
2022-10-05T14:51:57.148Z,20.80
2022-10-05T14:57:06.281Z,20.80
2022-10-05T15:02:23.267Z,20.80
2022-10-05T15:07:30.231Z,20.70
2022-10-05T15:12:33.110Z,20.60
2022-10-05T15:17:37.577Z,20.50
2022-10-05T15:22:46.391Z,20.50
2022-10-05T15:28:07.941Z,20.40
2022-10-05T15:33:15.437Z,20.30
2022-10-05T15:38:21.051Z,20.20
2022-10-05T15:43:22.859Z,20.20
2022-10-05T15:48:28.792Z,20.10
2022-10-05T15:53:36.853Z,20.00
2022-10-05T15:58:54.035Z,20.00
2022-10-05T16:03:55.804Z,19.90
2022-10-05T16:09:12.672Z,19.80
2022-10-05T16:14:22.137Z,19.80
2022-10-05T16:19:28.205Z,19.70
2022-10-05T16:24:47.313Z,19.60
2022-10-05T16:29:53.281Z,19.60
2022-10-05T16:35:05.136Z,19.50
2022-10-05T16:40:12.887Z,19.40
2022-10-05T16:45:30.621Z,19.30
2022-10-05T16:50:37.008Z,19.20
2022-10-05T16:55:41.976Z,19.10
2022-10-05T17:00:52.758Z,19.00
2022-10-05T17:06:13.211Z,18.90
2022-10-05T17:11:24.572Z,18.80
2022-10-05T17:16:28.402Z,18.70
2022-10-05T17:21:35.031Z,18.70
2022-10-05T17:26:55.621Z,18.60
2022-10-05T17:32:12.820Z,18.50
2022-10-05T17:37:35.507Z,18.40
2022-10-05T17:43:01.373Z,18.40
2022-10-05T17:48:01.415Z,18.30
2022-10-05T17:53:38.779Z,18.20
2022-10-05T17:59:03.600Z,18.10
2022-10-05T18:04:42.285Z,18.00
2022-10-05T18:09:55.719Z,18.00
2022-10-05T18:15:01.907Z,17.90
2022-10-05T18:20:14.787Z,17.80
2022-10-05T18:25:25.931Z,17.70
2022-10-05T18:30:27.226Z,17.70
2022-10-05T18:35:32.461Z,17.60
2022-10-05T18:40:43.257Z,17.60
2022-10-05T18:45:57.689Z,17.60
2022-10-05T18:51:04.525Z,17.60
2022-10-05T18:56:13.301Z,17.50
2022-10-05T19:01:42.023Z,17.50
2022-10-05T19:06:50.376Z,17.50
2022-10-05T19:11:55.932Z,17.50
2022-10-05T19:17:18.196Z,17.50
2022-10-05T19:22:26.021Z,17.40
2022-10-05T19:27:35.998Z,17.40
2022-10-05T19:32:45.164Z,17.40
2022-10-05T19:37:51.247Z,17.40
2022-10-05T19:43:05.549Z,17.30
2022-10-05T19:48:16.508Z,17.30
2022-10-05T19:53:19.196Z,17.30
2022-10-05T19:58:20.303Z,17.20
2022-10-05T20:03:27.694Z,17.20
2022-10-05T20:08:30.937Z,17.20
2022-10-05T20:13:33.393Z,17.20
2022-10-05T20:19:06.746Z,17.10
2022-10-05T20:24:09.601Z,17.10
2022-10-05T20:29:10.199Z,17.10
2022-10-05T20:34:09.881Z,17.10
2022-10-05T20:39:08.256Z,17.10
2022-10-05T20:44:06.416Z,17.10
2022-10-05T20:49:04.920Z,17.10
2022-10-05T20:54:04.664Z,17.10
2022-10-05T20:59:02.886Z,17.10
2022-10-05T21:04:01.079Z,17.10
2022-10-05T21:08:59.204Z,17.10
2022-10-05T21:14:03.392Z,17.10
2022-10-05T21:19:06.022Z,17.10
2022-10-05T21:24:05.188Z,17.10
2022-10-05T21:29:08.949Z,17.10
2022-10-05T21:34:10.008Z,17.10
2022-10-05T21:39:08.244Z,17.10
2022-10-05T21:44:07.692Z,17.10
2022-10-05T21:49:07.050Z,17.10
2022-10-05T21:54:10.253Z,17.10
2022-10-05T21:59:12.544Z,17.10
2022-10-05T22:04:11.000Z,17.10
2022-10-05T22:09:09.199Z,17.10
2022-10-05T22:14:07.301Z,17.10
2022-10-05T22:19:11.188Z,17.10
2022-10-05T22:24:10.967Z,17.20
2022-10-05T22:29:09.679Z,17.20
2022-10-05T22:34:09.213Z,17.20
2022-10-05T22:39:07.363Z,17.20
2022-10-05T22:44:05.705Z,17.20
2022-10-05T22:49:03.916Z,17.20
2022-10-05T22:54:03.507Z,17.20
2022-10-05T22:59:01.625Z,17.30
2022-10-05T23:03:59.765Z,17.30
2022-10-05T23:08:58.213Z,17.40
2022-10-05T23:13:59.880Z,17.40
2022-10-05T23:18:59.120Z,17.40
2022-10-05T23:23:57.389Z,17.40
2022-10-05T23:28:56.872Z,17.50
2022-10-05T23:33:55.025Z,17.50
2022-10-05T23:38:53.566Z,17.60
2022-10-05T23:43:54.634Z,17.60
2022-10-05T23:48:54.223Z,17.70
2022-10-05T23:53:52.381Z,17.70
2022-10-05T23:58:50.476Z,17.70
